Terminal Aerodrome Forecast
Issued by NWS Charleston, WV

Current Version | Previous Version | Text Only | Print | Product List | Glossary Off
Versions: 1 2 3 4 5 6 7 8 9 10 11 12 13 14 15 16 17 18 19 20 21 22 23 24

000
FTUS41 KRLX 242300 AAC
TAFBKW
TAF AMD
KBKW 242305Z 2423/2518 36008KT 2SM -RA BR BKN002
     FM250000 34004KT P6SM BKN020
     FM250300 VRB03KT P6SM SCT008=

USA.gov is the U.S. government's official web portal to all federal, state and local government web resources and services.